sensor_id;sensor_type;location;lat;lon;timestamp;P1;durP1;ratioP1;P2;durP2;ratioP2
23444;SDS011;11895;48.738;9.320;2023-03-01T00:01:43;25.40;;;14.93;;
23444;SDS011;11895;48.738;9.320;2023-03-01T00:04:15;29.80;;;14.50;;
23444;SDS011;11895;48.738;9.320;2023-03-01T00:06:43;22.97;;;13.30;;
23444;SDS011;11895;48.738;9.320;2023-03-01T00:09:13;24.08;;;14.27;;
23444;SDS011;11895;48.738;9.320;2023-03-01T00:11:42;25.15;;;14.70;;
23444;SDS011;11895;48.738;9.320;2023-03-01T00:14:11;25.13;;;14.88;;
23444;SDS011;11895;48.738;9.320;2023-03-01T00:16:40;26.33;;;14.45;;
23444;SDS011;11895;48.738;9.320;2023-03-01T00:19:12;22.95;;;13.10;;
23444;SDS011;11895;48.738;9.320;2023-03-01T00:21:43;27.05;;;13.85;;
23444;SDS011;11895;48.738;9.320;2023-03-01T00:24:12;24.48;;;14.48;;
23444;SDS011;11895;48.738;9.320;2023-03-01T00:26:40;26.35;;;14.18;;
23444;SDS011;11895;48.738;9.320;2023-03-01T00:29:08;23.05;;;14.35;;
23444;SDS011;11895;48.738;9.320;2023-03-01T00:31:35;28.50;;;15.10;;
23444;SDS011;11895;48.738;9.320;2023-03-01T00:34:04;25.23;;;14.40;;
23444;SDS011;11895;48.738;9.320;2023-03-01T00:36:33;28.75;;;14.95;;
23444;SDS011;11895;48.738;9.320;2023-03-01T00:39:03;25.83;;;14.10;;
23444;SDS011;11895;48.738;9.320;2023-03-01T00:41:34;25.20;;;14.35;;
23444;SDS011;11895;48.738;9.320;2023-03-01T00:44:02;21.75;;;13.77;;
23444;SDS011;11895;48.738;9.320;2023-03-01T00:46:30;25.48;;;15.07;;
23444;SDS011;11895;48.738;9.320;2023-03-01T00:48:59;27.05;;;14.90;;
23444;SDS011;11895;48.738;9.320;2023-03-01T00:51:28;30.42;;;15.65;;
23444;SDS011;11895;48.738;9.320;2023-03-01T00:53:58;31.52;;;15.93;;
23444;SDS011;11895;48.738;9.320;2023-03-01T00:56:29;25.33;;;15.43;;
23444;SDS011;11895;48.738;9.320;2023-03-01T00:58:57;26.20;;;14.65;;
23444;SDS011;11895;48.738;9.320;2023-03-01T01:01:26;28.50;;;15.80;;
23444;SDS011;11895;48.738;9.320;2023-03-01T01:03:57;28.52;;;15.80;;
23444;SDS011;11895;48.738;9.320;2023-03-01T01:06:43;26.10;;;14.50;;
23444;SDS011;11895;48.738;9.320;2023-03-01T01:09:13;30.48;;;16.08;;
23444;SDS011;11895;48.738;9.320;2023-03-01T01:11:45;28.02;;;15.13;;
23444;SDS011;11895;48.738;9.320;2023-03-01T01:14:16;27.65;;;15.57;;
23444;SDS011;11895;48.738;9.320;2023-03-01T01:19:13;27.85;;;15.10;;
23444;SDS011;11895;48.738;9.320;2023-03-01T01:21:41;24.77;;;14.55;;
23444;SDS011;11895;48.738;9.320;2023-03-01T01:24:09;27.23;;;15.45;;
23444;SDS011;11895;48.738;9.320;2023-03-01T01:26:38;25.55;;;13.73;;
23444;SDS011;11895;48.738;9.320;2023-03-01T01:29:06;27.92;;;14.63;;
23444;SDS011;11895;48.738;9.320;2023-03-01T01:31:35;24.98;;;14.88;;
23444;SDS011;11895;48.738;9.320;2023-03-01T01:34:08;24.85;;;14.48;;
23444;SDS011;11895;48.738;9.320;2023-03-01T01:36:43;26.65;;;14.73;;
23444;SDS011;11895;48.738;9.320;2023-03-01T01:39:15;24.35;;;14.00;;
23444;SDS011;11895;48.738;9.320;2023-03-01T01:41:42;24.63;;;14.57;;
23444;SDS011;11895;48.738;9.320;2023-03-01T01:46:42;26.73;;;15.60;;
23444;SDS011;11895;48.738;9.320;2023-03-01T01:49:37;27.58;;;14.98;;
23444;SDS011;11895;48.738;9.320;2023-03-01T01:57:41;27.20;;;15.05;;
23444;SDS011;11895;48.738;9.320;2023-03-01T02:00:20;28.20;;;15.45;;
23444;SDS011;11895;48.738;9.320;2023-03-01T02:02:57;25.30;;;14.35;;
23444;SDS011;11895;48.738;9.320;2023-03-01T02:05:32;29.50;;;15.38;;
23444;SDS011;11895;48.738;9.320;2023-03-01T02:08:04;31.35;;;15.07;;
23444;SDS011;11895;48.738;9.320;2023-03-01T02:10:33;28.15;;;16.33;;
23444;SDS011;11895;48.738;9.320;2023-03-01T02:13:06;26.45;;;14.95;;
23444;SDS011;11895;48.738;9.320;2023-03-01T02:15:35;30.75;;;15.63;;
23444;SDS011;11895;48.738;9.320;2023-03-01T02:18:05;25.13;;;14.75;;
23444;SDS011;11895;48.738;9.320;2023-03-01T02:23:27;26.40;;;15.48;;
23444;SDS011;11895;48.738;9.320;2023-03-01T02:28:37;27.33;;;15.23;;
23444;SDS011;11895;48.738;9.320;2023-03-01T02:31:08;29.45;;;15.75;;
23444;SDS011;11895;48.738;9.320;2023-03-01T02:33:56;29.92;;;17.77;;
23444;SDS011;11895;48.738;9.320;2023-03-01T02:36:25;31.05;;;16.83;;
23444;SDS011;11895;48.738;9.320;2023-03-01T02:38:58;32.10;;;17.17;;
23444;SDS011;11895;48.738;9.320;2023-03-01T02:41:30;34.28;;;19.08;;
23444;SDS011;11895;48.738;9.320;2023-03-01T02:44:04;30.58;;;15.98;;
23444;SDS011;11895;48.738;9.320;2023-03-01T02:46:41;29.27;;;16.45;;
23444;SDS011;11895;48.738;9.320;2023-03-01T02:49:28;26.52;;;15.50;;
23444;SDS011;11895;48.738;9.320;2023-03-01T02:55:16;26.40;;;16.77;;
23444;SDS011;11895;48.738;9.320;2023-03-01T03:00:19;32.45;;;17.50;;
23444;SDS011;11895;48.738;9.320;2023-03-01T03:02:54;31.38;;;16.38;;
23444;SDS011;11895;48.738;9.320;2023-03-01T03:05:24;29.90;;;16.77;;
23444;SDS011;11895;48.738;9.320;2023-03-01T03:07:57;28.13;;;17.17;;
23444;SDS011;11895;48.738;9.320;2023-03-01T03:10:33;29.90;;;17.23;;
23444;SDS011;11895;48.738;9.320;2023-03-01T03:13:10;30.15;;;17.67;;
23444;SDS011;11895;48.738;9.320;2023-03-01T03:15:41;28.02;;;16.25;;
23444;SDS011;11895;48.738;9.320;2023-03-01T03:18:11;31.55;;;17.02;;
23444;SDS011;11895;48.738;9.320;2023-03-01T03:20:42;28.60;;;16.15;;
23444;SDS011;11895;48.738;9.320;2023-03-01T03:23:11;29.00;;;16.92;;
23444;SDS011;11895;48.738;9.320;2023-03-01T03:25:39;27.90;;;16.65;;
23444;SDS011;11895;48.738;9.320;2023-03-01T03:28:07;29.27;;;16.60;;
23444;SDS011;11895;48.738;9.320;2023-03-01T03:30:39;31.23;;;17.83;;
23444;SDS011;11895;48.738;9.320;2023-03-01T03:33:08;30.30;;;17.30;;
23444;SDS011;11895;48.738;9.320;2023-03-01T03:35:44;30.13;;;17.45;;
23444;SDS011;11895;48.738;9.320;2023-03-01T03:38:15;29.52;;;17.33;;
23444;SDS011;11895;48.738;9.320;2023-03-01T03:40:49;30.55;;;16.83;;
23444;SDS011;11895;48.738;9.320;2023-03-01T03:43:21;31.25;;;17.67;;
23444;SDS011;11895;48.738;9.320;2023-03-01T03:45:50;29.67;;;17.05;;
23444;SDS011;11895;48.738;9.320;2023-03-01T03:48:18;29.13;;;17.35;;
23444;SDS011;11895;48.738;9.320;2023-03-01T03:50:48;30.40;;;16.88;;
23444;SDS011;11895;48.738;9.320;2023-03-01T03:53:24;29.67;;;16.45;;
23444;SDS011;11895;48.738;9.320;2023-03-01T03:55:54;29.25;;;16.95;;
23444;SDS011;11895;48.738;9.320;2023-03-01T03:58:23;26.40;;;16.08;;
23444;SDS011;11895;48.738;9.320;2023-03-01T04:03:25;29.48;;;16.75;;
23444;SDS011;11895;48.738;9.320;2023-03-01T04:05:56;29.92;;;17.08;;
23444;SDS011;11895;48.738;9.320;2023-03-01T04:08:26;31.05;;;18.48;;
23444;SDS011;11895;48.738;9.320;2023-03-01T04:11:01;33.47;;;18.52;;
23444;SDS011;11895;48.738;9.320;2023-03-01T04:13:51;36.90;;;18.02;;
23444;SDS011;11895;48.738;9.320;2023-03-01T04:16:24;31.88;;;17.38;;
23444;SDS011;11895;48.738;9.320;2023-03-01T04:18:52;33.33;;;18.15;;
23444;SDS011;11895;48.738;9.320;2023-03-01T04:21:20;31.65;;;18.15;;
23444;SDS011;11895;48.738;9.320;2023-03-01T04:23:48;32.55;;;18.10;;
23444;SDS011;11895;48.738;9.320;2023-03-01T04:26:19;32.22;;;17.40;;
23444;SDS011;11895;48.738;9.320;2023-03-01T04:28:46;31.85;;;19.40;;
23444;SDS011;11895;48.738;9.320;2023-03-01T04:31:17;34.13;;;18.90;;
23444;SDS011;11895;48.738;9.320;2023-03-01T04:33:49;36.92;;;20.00;;
23444;SDS011;11895;48.738;9.320;2023-03-01T04:36:24;29.98;;;18.15;;
23444;SDS011;11895;48.738;9.320;2023-03-01T04:38:54;29.58;;;17.80;;
23444;SDS011;11895;48.738;9.320;2023-03-01T04:41:23;34.60;;;18.23;;
23444;SDS011;11895;48.738;9.320;2023-03-01T04:46:20;33.17;;;17.67;;
23444;SDS011;11895;48.738;9.320;2023-03-01T04:51:16;32.13;;;18.10;;
23444;SDS011;11895;48.738;9.320;2023-03-01T04:53:49;31.73;;;18.80;;
23444;SDS011;11895;48.738;9.320;2023-03-01T04:56:17;29.90;;;18.77;;
23444;SDS011;11895;48.738;9.320;2023-03-01T04:58:45;29.10;;;17.65;;
23444;SDS011;11895;48.738;9.320;2023-03-01T05:01:17;30.93;;;19.10;;
23444;SDS011;11895;48.738;9.320;2023-03-01T05:03:47;30.38;;;17.92;;
23444;SDS011;11895;48.738;9.320;2023-03-01T05:06:18;32.10;;;18.27;;
23444;SDS011;11895;48.738;9.320;2023-03-01T05:08:48;32.53;;;19.08;;
23444;SDS011;11895;48.738;9.320;2023-03-01T05:11:15;31.83;;;18.17;;
23444;SDS011;11895;48.738;9.320;2023-03-01T05:13:43;31.70;;;18.67;;
23444;SDS011;11895;48.738;9.320;2023-03-01T05:16:11;38.50;;;19.40;;
23444;SDS011;11895;48.738;9.320;2023-03-01T05:18:40;30.98;;;18.88;;
23444;SDS011;11895;48.738;9.320;2023-03-01T05:21:09;37.05;;;19.17;;
23444;SDS011;11895;48.738;9.320;2023-03-01T05:23:42;31.48;;;18.38;;
23444;SDS011;11895;48.738;9.320;2023-03-01T05:26:11;36.22;;;18.08;;
23444;SDS011;11895;48.738;9.320;2023-03-01T05:28:54;31.05;;;18.15;;
23444;SDS011;11895;48.738;9.320;2023-03-01T05:31:25;31.60;;;18.90;;
23444;SDS011;11895;48.738;9.320;2023-03-01T05:33:53;33.38;;;18.88;;
23444;SDS011;11895;48.738;9.320;2023-03-01T05:36:21;33.03;;;17.88;;
23444;SDS011;11895;48.738;9.320;2023-03-01T05:38:48;32.67;;;18.35;;
23444;SDS011;11895;48.738;9.320;2023-03-01T05:41:16;36.22;;;18.05;;
23444;SDS011;11895;48.738;9.320;2023-03-01T05:43:44;31.30;;;18.65;;
23444;SDS011;11895;48.738;9.320;2023-03-01T05:46:11;30.83;;;18.35;;
23444;SDS011;11895;48.738;9.320;2023-03-01T05:48:41;34.15;;;19.38;;
23444;SDS011;11895;48.738;9.320;2023-03-01T05:51:10;32.15;;;18.85;;
23444;SDS011;11895;48.738;9.320;2023-03-01T05:53:38;33.95;;;19.15;;
23444;SDS011;11895;48.738;9.320;2023-03-01T05:56:05;32.35;;;18.88;;
23444;SDS011;11895;48.738;9.320;2023-03-01T05:58:33;32.28;;;18.02;;
23444;SDS011;11895;48.738;9.320;2023-03-01T06:01:01;35.95;;;19.25;;
23444;SDS011;11895;48.738;9.320;2023-03-01T06:03:29;31.77;;;19.23;;
23444;SDS011;11895;48.738;9.320;2023-03-01T06:05:57;31.77;;;18.85;;
23444;SDS011;11895;48.738;9.320;2023-03-01T06:08:25;29.98;;;18.33;;
23444;SDS011;11895;48.738;9.320;2023-03-01T06:10:53;35.00;;;19.00;;
23444;SDS011;11895;48.738;9.320;2023-03-01T06:13:22;31.77;;;18.47;;
23444;SDS011;11895;48.738;9.320;2023-03-01T06:15:50;30.25;;;18.20;;
23444;SDS011;11895;48.738;9.320;2023-03-01T06:18:18;34.40;;;18.92;;
23444;SDS011;11895;48.738;9.320;2023-03-01T06:20:51;33.55;;;17.92;;
23444;SDS011;11895;48.738;9.320;2023-03-01T06:23:22;34.42;;;18.48;;
23444;SDS011;11895;48.738;9.320;2023-03-01T06:25:51;29.65;;;17.95;;
23444;SDS011;11895;48.738;9.320;2023-03-01T06:28:19;30.57;;;19.37;;
23444;SDS011;11895;48.738;9.320;2023-03-01T06:30:46;30.08;;;18.25;;
23444;SDS011;11895;48.738;9.320;2023-03-01T06:33:16;33.97;;;18.83;;
23444;SDS011;11895;48.738;9.320;2023-03-01T06:35:46;33.85;;;19.02;;
23444;SDS011;11895;48.738;9.320;2023-03-01T06:38:14;38.80;;;18.95;;
23444;SDS011;11895;48.738;9.320;2023-03-01T06:40:43;33.10;;;18.63;;
23444;SDS011;11895;48.738;9.320;2023-03-01T06:43:12;31.87;;;18.47;;
23444;SDS011;11895;48.738;9.320;2023-03-01T06:45:39;32.88;;;18.83;;
23444;SDS011;11895;48.738;9.320;2023-03-01T06:48:07;30.60;;;18.23;;
23444;SDS011;11895;48.738;9.320;2023-03-01T06:50:35;34.13;;;18.70;;
23444;SDS011;11895;48.738;9.320;2023-03-01T06:53:04;32.08;;;18.70;;
23444;SDS011;11895;48.738;9.320;2023-03-01T06:55:32;33.08;;;19.13;;
23444;SDS011;11895;48.738;9.320;2023-03-01T06:58:00;33.08;;;19.10;;
23444;SDS011;11895;48.738;9.320;2023-03-01T07:00:29;33.75;;;18.45;;
23444;SDS011;11895;48.738;9.320;2023-03-01T07:02:58;32.75;;;19.30;;
23444;SDS011;11895;48.738;9.320;2023-03-01T07:05:29;34.88;;;18.50;;
23444;SDS011;11895;48.738;9.320;2023-03-01T07:07:57;32.10;;;18.30;;
23444;SDS011;11895;48.738;9.320;2023-03-01T07:10:25;28.90;;;18.05;;
23444;SDS011;11895;48.738;9.320;2023-03-01T07:12:56;34.92;;;17.60;;
23444;SDS011;11895;48.738;9.320;2023-03-01T07:15:25;32.08;;;18.40;;
23444;SDS011;11895;48.738;9.320;2023-03-01T07:17:54;31.27;;;18.83;;
23444;SDS011;11895;48.738;9.320;2023-03-01T07:20:23;30.65;;;18.48;;
23444;SDS011;11895;48.738;9.320;2023-03-01T07:22:52;36.15;;;19.27;;
23444;SDS011;11895;48.738;9.320;2023-03-01T07:25:21;33.78;;;18.08;;
23444;SDS011;11895;48.738;9.320;2023-03-01T07:27:50;37.70;;;19.52;;
23444;SDS011;11895;48.738;9.320;2023-03-01T07:30:22;33.78;;;19.00;;
23444;SDS011;11895;48.738;9.320;2023-03-01T07:32:52;33.85;;;19.30;;
23444;SDS011;11895;48.738;9.320;2023-03-01T07:35:22;31.88;;;18.98;;
23444;SDS011;11895;48.738;9.320;2023-03-01T07:37:53;31.73;;;18.90;;
23444;SDS011;11895;48.738;9.320;2023-03-01T07:40:20;37.58;;;20.33;;
23444;SDS011;11895;48.738;9.320;2023-03-01T07:42:48;38.88;;;20.48;;
23444;SDS011;11895;48.738;9.320;2023-03-01T07:45:22;34.15;;;19.40;;
23444;SDS011;11895;48.738;9.320;2023-03-01T07:47:51;31.25;;;18.98;;
23444;SDS011;11895;48.738;9.320;2023-03-01T07:50:20;32.22;;;19.60;;
23444;SDS011;11895;48.738;9.320;2023-03-01T07:52:49;38.13;;;19.58;;
23444;SDS011;11895;48.738;9.320;2023-03-01T07:55:17;34.45;;;19.15;;
23444;SDS011;11895;48.738;9.320;2023-03-01T07:57:48;36.80;;;20.75;;
23444;SDS011;11895;48.738;9.320;2023-03-01T08:00:15;35.05;;;19.65;;
23444;SDS011;11895;48.738;9.320;2023-03-01T08:02:43;39.60;;;20.55;;
23444;SDS011;11895;48.738;9.320;2023-03-01T08:05:12;35.70;;;19.13;;
23444;SDS011;11895;48.738;9.320;2023-03-01T08:07:39;37.05;;;19.70;;
23444;SDS011;11895;48.738;9.320;2023-03-01T08:10:07;36.22;;;20.80;;
23444;SDS011;11895;48.738;9.320;2023-03-01T08:12:36;36.38;;;19.80;;
23444;SDS011;11895;48.738;9.320;2023-03-01T08:15:04;39.55;;;19.40;;
23444;SDS011;11895;48.738;9.320;2023-03-01T08:17:32;34.33;;;20.52;;
23444;SDS011;11895;48.738;9.320;2023-03-01T08:19:59;34.13;;;19.90;;
23444;SDS011;11895;48.738;9.320;2023-03-01T08:22:27;34.10;;;19.00;;
23444;SDS011;11895;48.738;9.320;2023-03-01T08:24:55;37.08;;;19.55;;
23444;SDS011;11895;48.738;9.320;2023-03-01T08:27:22;34.90;;;19.05;;
23444;SDS011;11895;48.738;9.320;2023-03-01T08:29:51;36.53;;;21.40;;
23444;SDS011;11895;48.738;9.320;2023-03-01T08:32:18;32.63;;;18.83;;
23444;SDS011;11895;48.738;9.320;2023-03-01T08:34:46;35.10;;;20.52;;
23444;SDS011;11895;48.738;9.320;2023-03-01T08:37:14;33.97;;;20.42;;
23444;SDS011;11895;48.738;9.320;2023-03-01T08:39:42;31.67;;;20.02;;
23444;SDS011;11895;48.738;9.320;2023-03-01T08:42:09;36.05;;;19.45;;
23444;SDS011;11895;48.738;9.320;2023-03-01T08:44:37;33.13;;;19.15;;
23444;SDS011;11895;48.738;9.320;2023-03-01T08:47:05;31.30;;;19.50;;
23444;SDS011;11895;48.738;9.320;2023-03-01T08:49:32;36.08;;;18.95;;
23444;SDS011;11895;48.738;9.320;2023-03-01T08:52:01;34.58;;;19.75;;
23444;SDS011;11895;48.738;9.320;2023-03-01T08:54:29;34.13;;;20.40;;
23444;SDS011;11895;48.738;9.320;2023-03-01T08:56:56;34.25;;;19.23;;
23444;SDS011;11895;48.738;9.320;2023-03-01T08:59:25;35.92;;;19.58;;
23444;SDS011;11895;48.738;9.320;2023-03-01T09:01:53;31.45;;;19.17;;
23444;SDS011;11895;48.738;9.320;2023-03-01T09:04:21;36.50;;;20.17;;
23444;SDS011;11895;48.738;9.320;2023-03-01T09:06:48;34.40;;;19.73;;
23444;SDS011;11895;48.738;9.320;2023-03-01T09:09:22;37.58;;;19.75;;
23444;SDS011;11895;48.738;9.320;2023-03-01T09:11:50;30.90;;;18.58;;
23444;SDS011;11895;48.738;9.320;2023-03-01T09:14:17;33.15;;;19.67;;
23444;SDS011;11895;48.738;9.320;2023-03-01T09:16:45;31.88;;;19.15;;
23444;SDS011;11895;48.738;9.320;2023-03-01T09:19:13;32.83;;;19.90;;
23444;SDS011;11895;48.738;9.320;2023-03-01T09:21:41;36.60;;;20.15;;
23444;SDS011;11895;48.738;9.320;2023-03-01T09:24:22;34.05;;;19.42;;
23444;SDS011;11895;48.738;9.320;2023-03-01T09:26:52;37.83;;;19.65;;
23444;SDS011;11895;48.738;9.320;2023-03-01T09:29:22;31.58;;;19.02;;
23444;SDS011;11895;48.738;9.320;2023-03-01T09:31:50;32.40;;;19.87;;
23444;SDS011;11895;48.738;9.320;2023-03-01T09:34:21;29.33;;;18.92;;
23444;SDS011;11895;48.738;9.320;2023-03-01T09:36:50;35.38;;;19.35;;
23444;SDS011;11895;48.738;9.320;2023-03-01T09:39:18;34.47;;;19.60;;
23444;SDS011;11895;48.738;9.320;2023-03-01T09:47:14;36.92;;;19.20;;
23444;SDS011;11895;48.738;9.320;2023-03-01T09:49:57;30.70;;;18.17;;
23444;SDS011;11895;48.738;9.320;2023-03-01T09:56:17;33.05;;;19.33;;
23444;SDS011;11895;48.738;9.320;2023-03-01T10:04:20;29.38;;;18.15;;
23444;SDS011;11895;48.738;9.320;2023-03-01T10:09:39;30.30;;;19.20;;
23444;SDS011;11895;48.738;9.320;2023-03-01T10:12:10;29.13;;;18.83;;
23444;SDS011;11895;48.738;9.320;2023-03-01T10:17:27;32.40;;;18.88;;
23444;SDS011;11895;48.738;9.320;2023-03-01T10:20:13;28.83;;;17.15;;
23444;SDS011;11895;48.738;9.320;2023-03-01T10:22:51;34.58;;;19.60;;
23444;SDS011;11895;48.738;9.320;2023-03-01T10:28:25;30.23;;;18.73;;
23444;SDS011;11895;48.738;9.320;2023-03-01T10:31:12;33.80;;;18.17;;
23444;SDS011;11895;48.738;9.320;2023-03-01T10:33:48;30.42;;;17.60;;
23444;SDS011;11895;48.738;9.320;2023-03-01T10:36:21;28.65;;;17.65;;
23444;SDS011;11895;48.738;9.320;2023-03-01T10:41:25;27.85;;;16.55;;
23444;SDS011;11895;48.738;9.320;2023-03-01T10:43:57;27.73;;;16.38;;
23444;SDS011;11895;48.738;9.320;2023-03-01T10:49:16;28.85;;;16.73;;
23444;SDS011;11895;48.738;9.320;2023-03-01T10:51:50;28.10;;;18.08;;
23444;SDS011;11895;48.738;9.320;2023-03-01T10:54:31;27.13;;;16.45;;
23444;SDS011;11895;48.738;9.320;2023-03-01T10:57:01;27.67;;;18.13;;
23444;SDS011;11895;48.738;9.320;2023-03-01T10:59:33;27.30;;;16.52;;
23444;SDS011;11895;48.738;9.320;2023-03-01T11:10:33;26.08;;;16.52;;
23444;SDS011;11895;48.738;9.320;2023-03-01T11:16:05;28.23;;;17.35;;
23444;SDS011;11895;48.738;9.320;2023-03-01T11:18:37;24.65;;;16.85;;
23444;SDS011;11895;48.738;9.320;2023-03-01T11:21:14;27.05;;;17.10;;
23444;SDS011;11895;48.738;9.320;2023-03-01T11:28:41;28.00;;;17.00;;
23444;SDS011;11895;48.738;9.320;2023-03-01T11:31:16;30.97;;;16.90;;
23444;SDS011;11895;48.738;9.320;2023-03-01T11:33:49;29.90;;;16.60;;
23444;SDS011;11895;48.738;9.320;2023-03-01T11:39:31;27.63;;;16.63;;
23444;SDS011;11895;48.738;9.320;2023-03-01T12:03:33;24.67;;;15.95;;
23444;SDS011;11895;48.738;9.320;2023-03-01T12:12:05;25.42;;;15.85;;
23444;SDS011;11895;48.738;9.320;2023-03-01T12:24:05;20.88;;;14.50;;
23444;SDS011;11895;48.738;9.320;2023-03-01T12:26:59;20.00;;;14.23;;
23444;SDS011;11895;48.738;9.320;2023-03-01T12:32:40;26.50;;;15.27;;
23444;SDS011;11895;48.738;9.320;2023-03-01T12:38:32;24.60;;;14.38;;
23444;SDS011;11895;48.738;9.320;2023-03-01T12:50:20;19.30;;;14.02;;
23444;SDS011;11895;48.738;9.320;2023-03-01T12:52:55;19.88;;;14.40;;
23444;SDS011;11895;48.738;9.320;2023-03-01T12:55:34;20.63;;;14.05;;
23444;SDS011;11895;48.738;9.320;2023-03-01T12:58:21;19.35;;;13.95;;
23444;SDS011;11895;48.738;9.320;2023-03-01T13:09:58;20.58;;;13.82;;
23444;SDS011;11895;48.738;9.320;2023-03-01T13:15:52;19.63;;;14.30;;
23444;SDS011;11895;48.738;9.320;2023-03-01T13:20:49;17.35;;;13.07;;
23444;SDS011;11895;48.738;9.320;2023-03-01T13:23:30;18.00;;;12.45;;
23444;SDS011;11895;48.738;9.320;2023-03-01T13:26:16;17.50;;;13.10;;
23444;SDS011;11895;48.738;9.320;2023-03-01T13:38:57;17.38;;;12.43;;
23444;SDS011;11895;48.738;9.320;2023-03-01T13:46:56;19.48;;;11.98;;
23444;SDS011;11895;48.738;9.320;2023-03-01T13:49:36;15.70;;;11.68;;
23444;SDS011;11895;48.738;9.320;2023-03-01T14:03:33;16.08;;;12.30;;
23444;SDS011;11895;48.738;9.320;2023-03-01T14:06:09;17.65;;;12.82;;
23444;SDS011;11895;48.738;9.320;2023-03-01T14:09:00;14.43;;;11.25;;
23444;SDS011;11895;48.738;9.320;2023-03-01T14:18:19;14.40;;;11.02;;
23444;SDS011;11895;48.738;9.320;2023-03-01T14:21:09;17.85;;;12.13;;
23444;SDS011;11895;48.738;9.320;2023-03-01T14:23:42;18.10;;;12.38;;
23444;SDS011;11895;48.738;9.320;2023-03-01T14:26:09;17.75;;;12.60;;
23444;SDS011;11895;48.738;9.320;2023-03-01T14:28:38;18.20;;;13.60;;
23444;SDS011;11895;48.738;9.320;2023-03-01T14:34:21;17.10;;;12.30;;
23444;SDS011;11895;48.738;9.320;2023-03-01T14:36:50;16.67;;;13.02;;
23444;SDS011;11895;48.738;9.320;2023-03-01T14:39:19;18.48;;;12.30;;
23444;SDS011;11895;48.738;9.320;2023-03-01T14:41:55;18.35;;;12.18;;
23444;SDS011;11895;48.738;9.320;2023-03-01T14:44:28;15.07;;;12.20;;
23444;SDS011;11895;48.738;9.320;2023-03-01T14:46:56;16.37;;;12.30;;
23444;SDS011;11895;48.738;9.320;2023-03-01T14:49:24;14.80;;;11.65;;
23444;SDS011;11895;48.738;9.320;2023-03-01T14:51:58;19.83;;;12.88;;
23444;SDS011;11895;48.738;9.320;2023-03-01T14:54:42;17.50;;;12.45;;
23444;SDS011;11895;48.738;9.320;2023-03-01T14:57:16;20.83;;;12.77;;
23444;SDS011;11895;48.738;9.320;2023-03-01T14:59:53;16.95;;;12.70;;
23444;SDS011;11895;48.738;9.320;2023-03-01T15:02:27;18.73;;;13.20;;
23444;SDS011;11895;48.738;9.320;2023-03-01T15:04:58;16.02;;;12.32;;
23444;SDS011;11895;48.738;9.320;2023-03-01T15:07:35;16.52;;;12.43;;
23444;SDS011;11895;48.738;9.320;2023-03-01T15:10:19;19.30;;;13.02;;
23444;SDS011;11895;48.738;9.320;2023-03-01T15:13:13;19.80;;;13.23;;
23444;SDS011;11895;48.738;9.320;2023-03-01T15:15:51;20.45;;;13.13;;
23444;SDS011;11895;48.738;9.320;2023-03-01T15:18:29;19.60;;;13.43;;
23444;SDS011;11895;48.738;9.320;2023-03-01T15:21:05;21.08;;;14.07;;
23444;SDS011;11895;48.738;9.320;2023-03-01T15:26:50;19.15;;;13.13;;
23444;SDS011;11895;48.738;9.320;2023-03-01T15:29:28;18.23;;;12.40;;
23444;SDS011;11895;48.738;9.320;2023-03-01T15:32:03;18.95;;;13.68;;
23444;SDS011;11895;48.738;9.320;2023-03-01T15:34:51;18.20;;;13.05;;
23444;SDS011;11895;48.738;9.320;2023-03-01T15:40:32;20.20;;;14.13;;
23444;SDS011;11895;48.738;9.320;2023-03-01T15:43:00;22.45;;;13.80;;
23444;SDS011;11895;48.738;9.320;2023-03-01T15:45:31;18.08;;;13.40;;
23444;SDS011;11895;48.738;9.320;2023-03-01T15:48:15;22.85;;;14.15;;
23444;SDS011;11895;48.738;9.320;2023-03-01T15:50:53;21.10;;;14.05;;
23444;SDS011;11895;48.738;9.320;2023-03-01T15:53:24;19.33;;;13.05;;
23444;SDS011;11895;48.738;9.320;2023-03-01T15:55:54;21.15;;;14.00;;
23444;SDS011;11895;48.738;9.320;2023-03-01T15:58:23;19.98;;;14.30;;
23444;SDS011;11895;48.738;9.320;2023-03-01T16:00:52;18.58;;;13.23;;
23444;SDS011;11895;48.738;9.320;2023-03-01T16:03:27;18.83;;;13.13;;
23444;SDS011;11895;48.738;9.320;2023-03-01T16:05:55;19.98;;;13.30;;
23444;SDS011;11895;48.738;9.320;2023-03-01T16:08:23;23.52;;;13.52;;
23444;SDS011;11895;48.738;9.320;2023-03-01T16:10:50;24.75;;;14.32;;
23444;SDS011;11895;48.738;9.320;2023-03-01T16:13:20;19.88;;;14.38;;
23444;SDS011;11895;48.738;9.320;2023-03-01T16:15:47;22.17;;;14.50;;
23444;SDS011;11895;48.738;9.320;2023-03-01T16:18:14;21.52;;;15.43;;
23444;SDS011;11895;48.738;9.320;2023-03-01T16:20:42;22.67;;;15.32;;
23444;SDS011;11895;48.738;9.320;2023-03-01T16:23:10;23.27;;;15.82;;
23444;SDS011;11895;48.738;9.320;2023-03-01T16:25:38;25.37;;;15.67;;
23444;SDS011;11895;48.738;9.320;2023-03-01T16:28:06;21.52;;;14.75;;
23444;SDS011;11895;48.738;9.320;2023-03-01T16:30:37;24.55;;;15.75;;
23444;SDS011;11895;48.738;9.320;2023-03-01T16:33:06;21.58;;;15.45;;
23444;SDS011;11895;48.738;9.320;2023-03-01T16:35:53;22.88;;;16.13;;
23444;SDS011;11895;48.738;9.320;2023-03-01T16:38:20;22.75;;;15.65;;
23444;SDS011;11895;48.738;9.320;2023-03-01T16:40:48;38.63;;;18.65;;
23444;SDS011;11895;48.738;9.320;2023-03-01T16:43:18;23.20;;;16.63;;
23444;SDS011;11895;48.738;9.320;2023-03-01T16:45:45;27.92;;;17.40;;
23444;SDS011;11895;48.738;9.320;2023-03-01T16:48:13;28.70;;;16.40;;
23444;SDS011;11895;48.738;9.320;2023-03-01T16:50:41;23.50;;;16.08;;
23444;SDS011;11895;48.738;9.320;2023-03-01T16:53:08;24.48;;;15.90;;
23444;SDS011;11895;48.738;9.320;2023-03-01T16:55:36;26.25;;;17.17;;
23444;SDS011;11895;48.738;9.320;2023-03-01T16:58:04;26.27;;;17.63;;
23444;SDS011;11895;48.738;9.320;2023-03-01T17:00:32;24.90;;;15.90;;
23444;SDS011;11895;48.738;9.320;2023-03-01T17:02:59;30.08;;;16.48;;
23444;SDS011;11895;48.738;9.320;2023-03-01T17:05:26;27.65;;;17.13;;
23444;SDS011;11895;48.738;9.320;2023-03-01T17:07:54;27.05;;;16.83;;
23444;SDS011;11895;48.738;9.320;2023-03-01T17:10:22;25.75;;;16.10;;
23444;SDS011;11895;48.738;9.320;2023-03-01T17:12:49;26.85;;;15.75;;
23444;SDS011;11895;48.738;9.320;2023-03-01T17:15:17;27.67;;;17.48;;
23444;SDS011;11895;48.738;9.320;2023-03-01T17:17:45;29.85;;;16.73;;
23444;SDS011;11895;48.738;9.320;2023-03-01T17:20:17;27.77;;;16.33;;
23444;SDS011;11895;48.738;9.320;2023-03-01T17:22:45;24.50;;;16.45;;
23444;SDS011;11895;48.738;9.320;2023-03-01T17:25:12;29.48;;;17.23;;
23444;SDS011;11895;48.738;9.320;2023-03-01T17:27:39;25.05;;;16.05;;
23444;SDS011;11895;48.738;9.320;2023-03-01T17:30:07;26.35;;;16.27;;
23444;SDS011;11895;48.738;9.320;2023-03-01T17:32:39;28.27;;;17.40;;
23444;SDS011;11895;48.738;9.320;2023-03-01T17:35:07;28.93;;;17.37;;
23444;SDS011;11895;48.738;9.320;2023-03-01T17:37:40;31.38;;;17.77;;
23444;SDS011;11895;48.738;9.320;2023-03-01T17:40:17;29.33;;;17.20;;
23444;SDS011;11895;48.738;9.320;2023-03-01T17:42:45;26.65;;;16.08;;
23444;SDS011;11895;48.738;9.320;2023-03-01T17:45:13;27.27;;;16.52;;
23444;SDS011;11895;48.738;9.320;2023-03-01T17:47:40;28.33;;;17.10;;
23444;SDS011;11895;48.738;9.320;2023-03-01T17:50:08;27.55;;;16.30;;
23444;SDS011;11895;48.738;9.320;2023-03-01T17:52:37;28.85;;;17.15;;